sensor_id;sensor_type;location;lat;lon;timestamp;P1;durP1;ratioP1;P2;durP2;ratioP2
71626;SDS011;59475;52.464;13.590;2023-05-29T00:02:00;8.40;;;3.40;;
71626;SDS011;59475;52.464;13.590;2023-05-29T00:04:26;8.80;;;3.70;;
71626;SDS011;59475;52.464;13.590;2023-05-29T00:06:51;8.43;;;3.67;;
71626;SDS011;59475;52.464;13.590;2023-05-29T00:09:17;9.18;;;3.70;;
71626;SDS011;59475;52.464;13.590;2023-05-29T00:11:42;9.57;;;3.90;;
71626;SDS011;59475;52.464;13.590;2023-05-29T00:14:08;8.00;;;3.70;;
71626;SDS011;59475;52.464;13.590;2023-05-29T00:16:37;9.05;;;3.65;;
71626;SDS011;59475;52.464;13.590;2023-05-29T00:19:03;9.30;;;4.32;;
71626;SDS011;59475;52.464;13.590;2023-05-29T00:21:28;10.10;;;4.00;;
71626;SDS011;59475;52.464;13.590;2023-05-29T00:23:54;7.67;;;3.43;;
71626;SDS011;59475;52.464;13.590;2023-05-29T00:26:19;9.50;;;4.27;;
71626;SDS011;59475;52.464;13.590;2023-05-29T00:28:46;7.60;;;3.47;;
71626;SDS011;59475;52.464;13.590;2023-05-29T00:31:11;8.57;;;4.13;;
71626;SDS011;59475;52.464;13.590;2023-05-29T00:33:36;8.55;;;3.40;;
71626;SDS011;59475;52.464;13.590;2023-05-29T00:36:02;8.63;;;3.70;;
71626;SDS011;59475;52.464;13.590;2023-05-29T00:38:27;8.77;;;4.70;;
71626;SDS011;59475;52.464;13.590;2023-05-29T00:40:53;8.30;;;3.73;;
71626;SDS011;59475;52.464;13.590;2023-05-29T00:43:18;9.75;;;4.03;;
71626;SDS011;59475;52.464;13.590;2023-05-29T00:45:43;6.87;;;3.50;;
71626;SDS011;59475;52.464;13.590;2023-05-29T00:48:09;7.47;;;3.90;;
71626;SDS011;59475;52.464;13.590;2023-05-29T00:50:35;12.68;;;4.18;;
71626;SDS011;59475;52.464;13.590;2023-05-29T00:53:00;7.10;;;3.27;;
71626;SDS011;59475;52.464;13.590;2023-05-29T00:55:27;8.73;;;3.92;;
71626;SDS011;59475;52.464;13.590;2023-05-29T00:57:54;9.32;;;4.57;;
71626;SDS011;59475;52.464;13.590;2023-05-29T01:00:19;8.53;;;3.83;;
71626;SDS011;59475;52.464;13.590;2023-05-29T01:02:46;13.25;;;4.30;;
71626;SDS011;59475;52.464;13.590;2023-05-29T01:05:12;7.60;;;3.80;;
71626;SDS011;59475;52.464;13.590;2023-05-29T01:07:40;9.02;;;4.00;;
71626;SDS011;59475;52.464;13.590;2023-05-29T01:10:06;8.30;;;3.97;;
71626;SDS011;59475;52.464;13.590;2023-05-29T01:12:36;7.47;;;3.95;;
71626;SDS011;59475;52.464;13.590;2023-05-29T01:29:23;8.63;;;3.80;;
71626;SDS011;59475;52.464;13.590;2023-05-29T01:31:51;10.07;;;3.38;;
71626;SDS011;59475;52.464;13.590;2023-05-29T01:34:18;7.38;;;3.67;;
71626;SDS011;59475;52.464;13.590;2023-05-29T01:36:44;11.77;;;4.10;;
71626;SDS011;59475;52.464;13.590;2023-05-29T01:39:11;9.25;;;4.25;;
71626;SDS011;59475;52.464;13.590;2023-05-29T01:41:38;6.85;;;3.35;;
71626;SDS011;59475;52.464;13.590;2023-05-29T01:44:06;8.43;;;3.58;;
71626;SDS011;59475;52.464;13.590;2023-05-29T01:46:39;7.80;;;3.53;;
71626;SDS011;59475;52.464;13.590;2023-05-29T01:49:06;6.63;;;3.33;;
71626;SDS011;59475;52.464;13.590;2023-05-29T01:51:33;9.60;;;3.72;;
71626;SDS011;59475;52.464;13.590;2023-05-29T01:53:58;8.57;;;3.40;;
71626;SDS011;59475;52.464;13.590;2023-05-29T01:56:27;8.07;;;3.92;;
71626;SDS011;59475;52.464;13.590;2023-05-29T01:58:56;7.93;;;3.40;;
71626;SDS011;59475;52.464;13.590;2023-05-29T02:01:23;6.68;;;3.80;;
71626;SDS011;59475;52.464;13.590;2023-05-29T02:03:49;7.75;;;3.78;;
71626;SDS011;59475;52.464;13.590;2023-05-29T02:06:16;9.60;;;3.40;;
71626;SDS011;59475;52.464;13.590;2023-05-29T02:08:41;8.25;;;3.70;;
71626;SDS011;59475;52.464;13.590;2023-05-29T02:11:07;8.47;;;3.80;;
71626;SDS011;59475;52.464;13.590;2023-05-29T02:13:32;5.67;;;3.40;;
71626;SDS011;59475;52.464;13.590;2023-05-29T02:15:57;11.80;;;3.90;;
71626;SDS011;59475;52.464;13.590;2023-05-29T02:18:23;10.48;;;3.53;;
71626;SDS011;59475;52.464;13.590;2023-05-29T02:20:48;6.37;;;3.47;;
71626;SDS011;59475;52.464;13.590;2023-05-29T02:23:14;7.43;;;4.33;;
71626;SDS011;59475;52.464;13.590;2023-05-29T02:25:40;9.65;;;4.03;;
71626;SDS011;59475;52.464;13.590;2023-05-29T02:28:06;7.30;;;3.33;;
71626;SDS011;59475;52.464;13.590;2023-05-29T02:30:31;6.57;;;3.23;;
71626;SDS011;59475;52.464;13.590;2023-05-29T02:32:57;7.03;;;4.60;;
71626;SDS011;59475;52.464;13.590;2023-05-29T02:35:22;8.77;;;4.03;;
71626;SDS011;59475;52.464;13.590;2023-05-29T02:37:51;8.85;;;4.10;;
71626;SDS011;59475;52.464;13.590;2023-05-29T02:40:17;8.80;;;3.53;;
71626;SDS011;59475;52.464;13.590;2023-05-29T02:42:43;7.40;;;3.92;;
71626;SDS011;59475;52.464;13.590;2023-05-29T02:45:09;9.50;;;3.80;;
71626;SDS011;59475;52.464;13.590;2023-05-29T02:47:35;8.57;;;3.73;;
71626;SDS011;59475;52.464;13.590;2023-05-29T02:50:01;8.35;;;3.75;;
71626;SDS011;59475;52.464;13.590;2023-05-29T02:52:27;7.72;;;3.78;;
71626;SDS011;59475;52.464;13.590;2023-05-29T02:54:53;6.97;;;3.70;;
71626;SDS011;59475;52.464;13.590;2023-05-29T02:57:20;9.63;;;3.20;;
71626;SDS011;59475;52.464;13.590;2023-05-29T02:59:45;7.70;;;3.65;;
71626;SDS011;59475;52.464;13.590;2023-05-29T03:02:11;5.53;;;3.20;;
71626;SDS011;59475;52.464;13.590;2023-05-29T03:04:37;7.10;;;3.33;;
71626;SDS011;59475;52.464;13.590;2023-05-29T03:07:02;8.93;;;3.40;;
71626;SDS011;59475;52.464;13.590;2023-05-29T03:09:28;11.70;;;3.93;;
71626;SDS011;59475;52.464;13.590;2023-05-29T03:11:53;9.65;;;3.67;;
71626;SDS011;59475;52.464;13.590;2023-05-29T03:14:19;6.63;;;3.13;;
71626;SDS011;59475;52.464;13.590;2023-05-29T03:16:46;8.43;;;3.90;;
71626;SDS011;59475;52.464;13.590;2023-05-29T03:19:12;6.80;;;3.50;;
71626;SDS011;59475;52.464;13.590;2023-05-29T03:21:37;8.63;;;3.47;;
71626;SDS011;59475;52.464;13.590;2023-05-29T03:24:03;10.93;;;3.77;;
71626;SDS011;59475;52.464;13.590;2023-05-29T03:26:29;8.27;;;3.92;;
71626;SDS011;59475;52.464;13.590;2023-05-29T03:28:54;8.90;;;3.60;;
71626;SDS011;59475;52.464;13.590;2023-05-29T03:31:20;10.60;;;3.30;;
71626;SDS011;59475;52.464;13.590;2023-05-29T03:33:45;7.27;;;3.50;;
71626;SDS011;59475;52.464;13.590;2023-05-29T03:36:11;5.87;;;3.50;;
71626;SDS011;59475;52.464;13.590;2023-05-29T03:38:37;6.53;;;3.70;;
71626;SDS011;59475;52.464;13.590;2023-05-29T03:41:02;8.27;;;3.50;;
71626;SDS011;59475;52.464;13.590;2023-05-29T03:43:28;5.90;;;3.53;;
71626;SDS011;59475;52.464;13.590;2023-05-29T03:45:53;9.23;;;3.40;;
71626;SDS011;59475;52.464;13.590;2023-05-29T03:48:18;7.30;;;3.20;;
71626;SDS011;59475;52.464;13.590;2023-05-29T03:50:45;8.53;;;3.67;;
71626;SDS011;59475;52.464;13.590;2023-05-29T03:53:13;9.50;;;3.70;;
71626;SDS011;59475;52.464;13.590;2023-05-29T03:55:38;7.80;;;3.37;;
71626;SDS011;59475;52.464;13.590;2023-05-29T03:58:03;8.80;;;3.53;;
71626;SDS011;59475;52.464;13.590;2023-05-29T04:00:29;7.97;;;3.70;;
71626;SDS011;59475;52.464;13.590;2023-05-29T04:02:55;8.33;;;3.37;;
71626;SDS011;59475;52.464;13.590;2023-05-29T04:05:21;5.20;;;3.22;;
71626;SDS011;59475;52.464;13.590;2023-05-29T04:07:46;9.13;;;3.63;;
71626;SDS011;59475;52.464;13.590;2023-05-29T04:10:11;9.67;;;3.60;;
71626;SDS011;59475;52.464;13.590;2023-05-29T04:12:37;9.32;;;3.38;;
71626;SDS011;59475;52.464;13.590;2023-05-29T04:15:03;6.43;;;3.03;;
71626;SDS011;59475;52.464;13.590;2023-05-29T04:17:29;8.32;;;3.50;;
71626;SDS011;59475;52.464;13.590;2023-05-29T04:19:54;8.80;;;3.70;;
71626;SDS011;59475;52.464;13.590;2023-05-29T04:22:20;8.30;;;3.53;;
71626;SDS011;59475;52.464;13.590;2023-05-29T04:24:45;10.37;;;3.37;;
71626;SDS011;59475;52.464;13.590;2023-05-29T04:27:11;8.45;;;3.65;;
71626;SDS011;59475;52.464;13.590;2023-05-29T04:29:41;10.18;;;3.50;;
71626;SDS011;59475;52.464;13.590;2023-05-29T04:32:07;7.23;;;3.10;;
71626;SDS011;59475;52.464;13.590;2023-05-29T04:34:36;6.90;;;3.40;;
71626;SDS011;59475;52.464;13.590;2023-05-29T04:37:04;6.10;;;3.15;;
71626;SDS011;59475;52.464;13.590;2023-05-29T04:39:31;5.82;;;3.78;;
71626;SDS011;59475;52.464;13.590;2023-05-29T04:41:57;7.53;;;3.03;;
71626;SDS011;59475;52.464;13.590;2023-05-29T04:44:23;6.83;;;3.20;;
71626;SDS011;59475;52.464;13.590;2023-05-29T04:46:52;7.15;;;3.55;;
71626;SDS011;59475;52.464;13.590;2023-05-29T04:49:18;10.43;;;3.60;;
71626;SDS011;59475;52.464;13.590;2023-05-29T04:51:45;6.32;;;3.00;;
71626;SDS011;59475;52.464;13.590;2023-05-29T04:54:11;5.88;;;2.88;;
71626;SDS011;59475;52.464;13.590;2023-05-29T04:56:36;7.40;;;2.97;;
71626;SDS011;59475;52.464;13.590;2023-05-29T04:59:02;5.55;;;2.88;;
71626;SDS011;59475;52.464;13.590;2023-05-29T05:01:28;7.33;;;2.50;;
71626;SDS011;59475;52.464;13.590;2023-05-29T05:03:54;4.40;;;2.80;;
71626;SDS011;59475;52.464;13.590;2023-05-29T05:06:21;5.45;;;2.30;;
71626;SDS011;59475;52.464;13.590;2023-05-29T05:08:47;8.63;;;2.80;;
71626;SDS011;59475;52.464;13.590;2023-05-29T05:11:12;8.00;;;2.37;;
71626;SDS011;59475;52.464;13.590;2023-05-29T05:13:39;4.93;;;2.28;;
71626;SDS011;59475;52.464;13.590;2023-05-29T05:16:04;3.50;;;2.00;;
71626;SDS011;59475;52.464;13.590;2023-05-29T05:18:30;4.40;;;2.60;;
71626;SDS011;59475;52.464;13.590;2023-05-29T05:20:55;7.45;;;2.38;;
71626;SDS011;59475;52.464;13.590;2023-05-29T05:23:21;6.03;;;2.17;;
71626;SDS011;59475;52.464;13.590;2023-05-29T05:25:46;7.73;;;3.27;;
71626;SDS011;59475;52.464;13.590;2023-05-29T05:28:12;3.30;;;2.03;;
71626;SDS011;59475;52.464;13.590;2023-05-29T05:30:38;4.88;;;2.38;;
71626;SDS011;59475;52.464;13.590;2023-05-29T05:33:03;3.77;;;2.50;;
71626;SDS011;59475;52.464;13.590;2023-05-29T05:35:29;5.18;;;2.40;;
71626;SDS011;59475;52.464;13.590;2023-05-29T05:37:54;5.00;;;2.20;;
71626;SDS011;59475;52.464;13.590;2023-05-29T05:40:22;6.60;;;2.13;;
71626;SDS011;59475;52.464;13.590;2023-05-29T05:42:48;4.00;;;2.10;;
71626;SDS011;59475;52.464;13.590;2023-05-29T05:45:14;5.07;;;2.10;;
71626;SDS011;59475;52.464;13.590;2023-05-29T05:47:39;3.50;;;2.00;;
71626;SDS011;59475;52.464;13.590;2023-05-29T05:50:05;4.37;;;2.20;;
71626;SDS011;59475;52.464;13.590;2023-05-29T05:52:30;3.50;;;2.33;;
71626;SDS011;59475;52.464;13.590;2023-05-29T05:54:57;3.40;;;2.10;;
71626;SDS011;59475;52.464;13.590;2023-05-29T05:57:23;5.10;;;2.33;;
71626;SDS011;59475;52.464;13.590;2023-05-29T05:59:48;4.03;;;2.00;;
71626;SDS011;59475;52.464;13.590;2023-05-29T06:02:14;2.97;;;1.80;;
71626;SDS011;59475;52.464;13.590;2023-05-29T06:04:39;3.35;;;1.77;;
71626;SDS011;59475;52.464;13.590;2023-05-29T06:07:05;3.73;;;1.97;;
71626;SDS011;59475;52.464;13.590;2023-05-29T06:09:31;3.78;;;1.58;;
71626;SDS011;59475;52.464;13.590;2023-05-29T06:11:56;3.10;;;1.90;;
71626;SDS011;59475;52.464;13.590;2023-05-29T06:14:23;4.93;;;1.90;;
71626;SDS011;59475;52.464;13.590;2023-05-29T06:16:49;3.17;;;1.55;;
71626;SDS011;59475;52.464;13.590;2023-05-29T06:19:15;3.23;;;1.63;;
71626;SDS011;59475;52.464;13.590;2023-05-29T06:21:42;4.20;;;1.55;;
71626;SDS011;59475;52.464;13.590;2023-05-29T06:24:07;3.03;;;1.50;;
71626;SDS011;59475;52.464;13.590;2023-05-29T06:26:33;3.05;;;1.92;;
71626;SDS011;59475;52.464;13.590;2023-05-29T06:28:58;7.73;;;2.23;;
71626;SDS011;59475;52.464;13.590;2023-05-29T06:31:23;3.37;;;1.90;;
71626;SDS011;59475;52.464;13.590;2023-05-29T06:33:49;3.73;;;1.57;;
71626;SDS011;59475;52.464;13.590;2023-05-29T06:36:15;2.43;;;1.60;;
71626;SDS011;59475;52.464;13.590;2023-05-29T06:38:45;5.95;;;2.08;;
71626;SDS011;59475;52.464;13.590;2023-05-29T06:41:13;3.70;;;1.80;;
71626;SDS011;59475;52.464;13.590;2023-05-29T06:43:38;2.67;;;1.57;;
71626;SDS011;59475;52.464;13.590;2023-05-29T06:46:04;5.70;;;1.90;;
71626;SDS011;59475;52.464;13.590;2023-05-29T06:48:32;3.73;;;1.93;;
71626;SDS011;59475;52.464;13.590;2023-05-29T06:51:00;2.72;;;1.83;;
71626;SDS011;59475;52.464;13.590;2023-05-29T06:53:26;4.40;;;1.60;;
71626;SDS011;59475;52.464;13.590;2023-05-29T06:55:52;2.63;;;1.70;;
71626;SDS011;59475;52.464;13.590;2023-05-29T06:58:18;3.40;;;1.60;;
71626;SDS011;59475;52.464;13.590;2023-05-29T07:00:43;2.80;;;1.57;;
71626;SDS011;59475;52.464;13.590;2023-05-29T07:03:08;2.97;;;1.60;;
71626;SDS011;59475;52.464;13.590;2023-05-29T07:05:34;3.33;;;1.60;;
71626;SDS011;59475;52.464;13.590;2023-05-29T07:07:59;4.73;;;1.50;;
71626;SDS011;59475;52.464;13.590;2023-05-29T07:10:25;2.30;;;1.40;;
71626;SDS011;59475;52.464;13.590;2023-05-29T07:12:50;5.40;;;2.33;;
71626;SDS011;59475;52.464;13.590;2023-05-29T07:15:16;3.77;;;1.70;;
71626;SDS011;59475;52.464;13.590;2023-05-29T07:17:41;3.30;;;1.40;;
71626;SDS011;59475;52.464;13.590;2023-05-29T07:20:07;4.77;;;1.80;;
71626;SDS011;59475;52.464;13.590;2023-05-29T07:22:33;4.03;;;1.70;;
71626;SDS011;59475;52.464;13.590;2023-05-29T07:24:59;4.53;;;1.80;;
71626;SDS011;59475;52.464;13.590;2023-05-29T07:27:25;3.33;;;1.85;;
71626;SDS011;59475;52.464;13.590;2023-05-29T07:29:50;4.40;;;1.90;;
71626;SDS011;59475;52.464;13.590;2023-05-29T07:32:16;4.00;;;1.80;;
71626;SDS011;59475;52.464;13.590;2023-05-29T07:34:41;2.55;;;1.55;;
71626;SDS011;59475;52.464;13.590;2023-05-29T07:37:07;3.70;;;1.40;;
71626;SDS011;59475;52.464;13.590;2023-05-29T07:39:32;4.50;;;2.07;;
71626;SDS011;59475;52.464;13.590;2023-05-29T07:41:59;2.63;;;1.67;;
71626;SDS011;59475;52.464;13.590;2023-05-29T07:44:26;4.22;;;1.63;;
71626;SDS011;59475;52.464;13.590;2023-05-29T07:46:51;2.17;;;1.33;;
71626;SDS011;59475;52.464;13.590;2023-05-29T07:49:17;2.83;;;1.60;;
71626;SDS011;59475;52.464;13.590;2023-05-29T07:51:42;3.20;;;1.70;;
71626;SDS011;59475;52.464;13.590;2023-05-29T07:54:08;3.13;;;1.60;;
71626;SDS011;59475;52.464;13.590;2023-05-29T07:56:33;2.77;;;1.40;;
71626;SDS011;59475;52.464;13.590;2023-05-29T07:58:59;2.73;;;1.83;;
71626;SDS011;59475;52.464;13.590;2023-05-29T08:01:25;3.10;;;1.80;;
71626;SDS011;59475;52.464;13.590;2023-05-29T08:03:52;2.92;;;1.75;;
71626;SDS011;59475;52.464;13.590;2023-05-29T08:06:18;2.00;;;1.20;;
71626;SDS011;59475;52.464;13.590;2023-05-29T08:08:44;2.95;;;1.23;;
71626;SDS011;59475;52.464;13.590;2023-05-29T08:11:10;3.58;;;1.88;;
71626;SDS011;59475;52.464;13.590;2023-05-29T08:13:35;3.13;;;1.60;;
71626;SDS011;59475;52.464;13.590;2023-05-29T08:16:01;4.28;;;1.63;;
71626;SDS011;59475;52.464;13.590;2023-05-29T08:18:27;3.57;;;1.43;;
71626;SDS011;59475;52.464;13.590;2023-05-29T08:20:55;2.67;;;1.63;;
71626;SDS011;59475;52.464;13.590;2023-05-29T08:23:20;3.38;;;1.70;;
71626;SDS011;59475;52.464;13.590;2023-05-29T08:25:46;3.93;;;1.60;;
71626;SDS011;59475;52.464;13.590;2023-05-29T08:28:12;2.50;;;1.75;;
71626;SDS011;59475;52.464;13.590;2023-05-29T08:30:39;4.83;;;2.00;;
71626;SDS011;59475;52.464;13.590;2023-05-29T08:33:04;3.00;;;1.90;;
71626;SDS011;59475;52.464;13.590;2023-05-29T08:35:29;3.13;;;1.77;;
71626;SDS011;59475;52.464;13.590;2023-05-29T08:37:55;2.47;;;1.90;;
71626;SDS011;59475;52.464;13.590;2023-05-29T08:40:20;3.03;;;1.77;;
71626;SDS011;59475;52.464;13.590;2023-05-29T08:42:47;3.22;;;1.65;;
71626;SDS011;59475;52.464;13.590;2023-05-29T08:45:21;3.67;;;1.92;;
71626;SDS011;59475;52.464;13.590;2023-05-29T08:47:49;3.33;;;2.20;;
71626;SDS011;59475;52.464;13.590;2023-05-29T08:50:17;3.93;;;1.80;;
71626;SDS011;59475;52.464;13.590;2023-05-29T08:52:43;4.38;;;1.90;;
71626;SDS011;59475;52.464;13.590;2023-05-29T08:55:08;4.47;;;1.98;;
71626;SDS011;59475;52.464;13.590;2023-05-29T08:57:34;4.27;;;2.07;;
71626;SDS011;59475;52.464;13.590;2023-05-29T09:00:02;2.80;;;1.80;;
71626;SDS011;59475;52.464;13.590;2023-05-29T09:02:47;3.95;;;2.10;;
71626;SDS011;59475;52.464;13.590;2023-05-29T09:05:12;4.07;;;1.90;;
71626;SDS011;59475;52.464;13.590;2023-05-29T09:07:39;3.03;;;2.10;;
71626;SDS011;59475;52.464;13.590;2023-05-29T09:10:06;4.38;;;2.35;;
71626;SDS011;59475;52.464;13.590;2023-05-29T09:12:32;3.28;;;1.88;;
71626;SDS011;59475;52.464;13.590;2023-05-29T09:14:58;5.68;;;2.00;;
71626;SDS011;59475;52.464;13.590;2023-05-29T09:17:29;5.10;;;2.73;;
71626;SDS011;59475;52.464;13.590;2023-05-29T09:19:57;2.67;;;1.77;;
71626;SDS011;59475;52.464;13.590;2023-05-29T09:22:22;2.70;;;1.73;;
71626;SDS011;59475;52.464;13.590;2023-05-29T09:24:47;3.33;;;2.30;;
71626;SDS011;59475;52.464;13.590;2023-05-29T09:27:13;4.03;;;2.33;;
71626;SDS011;59475;52.464;13.590;2023-05-29T09:29:40;3.47;;;2.20;;
71626;SDS011;59475;52.464;13.590;2023-05-29T09:32:10;1.92;;;1.73;;
71626;SDS011;59475;52.464;13.590;2023-05-29T09:34:42;4.73;;;2.20;;
71626;SDS011;59475;52.464;13.590;2023-05-29T09:37:08;5.10;;;2.20;;
71626;SDS011;59475;52.464;13.590;2023-05-29T09:39:47;5.28;;;2.33;;
71626;SDS011;59475;52.464;13.590;2023-05-29T09:42:14;3.25;;;2.10;;
71626;SDS011;59475;52.464;13.590;2023-05-29T09:44:41;3.83;;;2.70;;
71626;SDS011;59475;52.464;13.590;2023-05-29T09:47:07;3.07;;;2.00;;
71626;SDS011;59475;52.464;13.590;2023-05-29T09:49:33;4.80;;;2.20;;
71626;SDS011;59475;52.464;13.590;2023-05-29T09:51:58;5.27;;;1.70;;
71626;SDS011;59475;52.464;13.590;2023-05-29T09:54:26;3.03;;;2.03;;
71626;SDS011;59475;52.464;13.590;2023-05-29T09:56:56;5.55;;;2.40;;
71626;SDS011;59475;52.464;13.590;2023-05-29T09:59:23;2.87;;;1.80;;
71626;SDS011;59475;52.464;13.590;2023-05-29T10:01:49;4.20;;;2.38;;
71626;SDS011;59475;52.464;13.590;2023-05-29T10:04:33;3.33;;;2.10;;
71626;SDS011;59475;52.464;13.590;2023-05-29T10:07:07;4.03;;;2.28;;
71626;SDS011;59475;52.464;13.590;2023-05-29T10:09:35;4.40;;;2.45;;
71626;SDS011;59475;52.464;13.590;2023-05-29T10:12:06;6.10;;;2.00;;
71626;SDS011;59475;52.464;13.590;2023-05-29T10:14:33;4.55;;;2.13;;
71626;SDS011;59475;52.464;13.590;2023-05-29T10:17:01;4.03;;;1.98;;
71626;SDS011;59475;52.464;13.590;2023-05-29T10:19:30;3.75;;;2.30;;
71626;SDS011;59475;52.464;13.590;2023-05-29T10:21:57;4.75;;;2.35;;
71626;SDS011;59475;52.464;13.590;2023-05-29T10:24:26;3.27;;;2.20;;
71626;SDS011;59475;52.464;13.590;2023-05-29T10:26:53;2.95;;;2.17;;
71626;SDS011;59475;52.464;13.590;2023-05-29T10:32:19;4.05;;;2.40;;
71626;SDS011;59475;52.464;13.590;2023-05-29T10:37:50;5.00;;;2.73;;
71626;SDS011;59475;52.464;13.590;2023-05-29T10:40:24;3.80;;;2.63;;
71626;SDS011;59475;52.464;13.590;2023-05-29T10:42:51;6.68;;;2.17;;
71626;SDS011;59475;52.464;13.590;2023-05-29T10:50:41;3.90;;;2.40;;
71626;SDS011;59475;52.464;13.590;2023-05-29T10:53:10;5.07;;;2.30;;
71626;SDS011;59475;52.464;13.590;2023-05-29T10:55:40;3.30;;;2.03;;
71626;SDS011;59475;52.464;13.590;2023-05-29T10:58:07;4.22;;;1.85;;
71626;SDS011;59475;52.464;13.590;2023-05-29T11:00:34;6.43;;;2.28;;
71626;SDS011;59475;52.464;13.590;2023-05-29T11:03:06;3.23;;;2.20;;
71626;SDS011;59475;52.464;13.590;2023-05-29T11:05:32;3.53;;;2.00;;
71626;SDS011;59475;52.464;13.590;2023-05-29T11:07:59;4.20;;;2.53;;
71626;SDS011;59475;52.464;13.590;2023-05-29T11:13:27;3.22;;;1.85;;
71626;SDS011;59475;52.464;13.590;2023-05-29T11:16:14;5.60;;;2.22;;
71626;SDS011;59475;52.464;13.590;2023-05-29T11:18:44;4.35;;;2.45;;
71626;SDS011;59475;52.464;13.590;2023-05-29T11:23:51;4.72;;;2.20;;
71626;SDS011;59475;52.464;13.590;2023-05-29T11:26:21;3.15;;;2.10;;
71626;SDS011;59475;52.464;13.590;2023-05-29T11:28:48;5.00;;;2.20;;
71626;SDS011;59475;52.464;13.590;2023-05-29T11:31:13;3.70;;;2.27;;
71626;SDS011;59475;52.464;13.590;2023-05-29T11:33:41;3.47;;;2.38;;
71626;SDS011;59475;52.464;13.590;2023-05-29T11:36:13;4.38;;;2.00;;
71626;SDS011;59475;52.464;13.590;2023-05-29T11:38:39;4.00;;;2.03;;
71626;SDS011;59475;52.464;13.590;2023-05-29T11:41:05;3.47;;;2.00;;
71626;SDS011;59475;52.464;13.590;2023-05-29T11:43:30;4.90;;;2.00;;
71626;SDS011;59475;52.464;13.590;2023-05-29T11:45:58;3.60;;;2.20;;
71626;SDS011;59475;52.464;13.590;2023-05-29T11:48:23;3.30;;;1.70;;
71626;SDS011;59475;52.464;13.590;2023-05-29T11:50:49;6.60;;;2.60;;
71626;SDS011;59475;52.464;13.590;2023-05-29T11:53:15;4.50;;;2.47;;
71626;SDS011;59475;52.464;13.590;2023-05-29T11:55:40;5.93;;;2.40;;
71626;SDS011;59475;52.464;13.590;2023-05-29T11:58:05;4.03;;;2.17;;
71626;SDS011;59475;52.464;13.590;2023-05-29T12:00:32;4.57;;;1.90;;
71626;SDS011;59475;52.464;13.590;2023-05-29T12:03:00;3.08;;;1.80;;
71626;SDS011;59475;52.464;13.590;2023-05-29T12:05:29;3.60;;;1.98;;
71626;SDS011;59475;52.464;13.590;2023-05-29T12:07:56;5.50;;;1.92;;
71626;SDS011;59475;52.464;13.590;2023-05-29T12:10:22;3.38;;;1.95;;
71626;SDS011;59475;52.464;13.590;2023-05-29T12:12:49;6.07;;;2.20;;
71626;SDS011;59475;52.464;13.590;2023-05-29T12:15:20;4.38;;;2.63;;
71626;SDS011;59475;52.464;13.590;2023-05-29T12:17:46;2.78;;;2.03;;
71626;SDS011;59475;52.464;13.590;2023-05-29T12:20:14;3.28;;;2.00;;
71626;SDS011;59475;52.464;13.590;2023-05-29T12:22:40;3.17;;;2.13;;
71626;SDS011;59475;52.464;13.590;2023-05-29T12:25:10;4.10;;;2.10;;
71626;SDS011;59475;52.464;13.590;2023-05-29T12:27:37;4.40;;;2.13;;
71626;SDS011;59475;52.464;13.590;2023-05-29T12:30:10;5.97;;;2.22;;
71626;SDS011;59475;52.464;13.590;2023-05-29T12:32:46;5.50;;;2.10;;
71626;SDS011;59475;52.464;13.590;2023-05-29T12:35:14;3.78;;;1.90;;
71626;SDS011;59475;52.464;13.590;2023-05-29T12:37:47;4.87;;;2.40;;
71626;SDS011;59475;52.464;13.590;2023-05-29T12:40:18;3.95;;;2.15;;
71626;SDS011;59475;52.464;13.590;2023-05-29T12:42:47;5.75;;;2.25;;
71626;SDS011;59475;52.464;13.590;2023-05-29T12:45:13;5.47;;;2.20;;
71626;SDS011;59475;52.464;13.590;2023-05-29T12:47:46;5.53;;;2.15;;
71626;SDS011;59475;52.464;13.590;2023-05-29T12:50:28;5.23;;;1.83;;
71626;SDS011;59475;52.464;13.590;2023-05-29T12:53:05;3.17;;;2.00;;
71626;SDS011;59475;52.464;13.590;2023-05-29T12:55:38;5.40;;;2.00;;
71626;SDS011;59475;52.464;13.590;2023-05-29T12:58:08;2.72;;;1.98;;
71626;SDS011;59475;52.464;13.590;2023-05-29T13:00:35;3.88;;;1.85;;
71626;SDS011;59475;52.464;13.590;2023-05-29T13:03:03;3.83;;;1.70;;
71626;SDS011;59475;52.464;13.590;2023-05-29T13:05:29;3.25;;;2.00;;
71626;SDS011;59475;52.464;13.590;2023-05-29T13:07:55;3.57;;;2.10;;
71626;SDS011;59475;52.464;13.590;2023-05-29T13:10:20;3.57;;;2.00;;
71626;SDS011;59475;52.464;13.590;2023-05-29T13:12:47;4.80;;;2.13;;
71626;SDS011;59475;52.464;13.590;2023-05-29T13:15:18;5.17;;;1.90;;
71626;SDS011;59475;52.464;13.590;2023-05-29T13:17:44;4.43;;;2.13;;
71626;SDS011;59475;52.464;13.590;2023-05-29T13:20:11;3.28;;;2.03;;
71626;SDS011;59475;52.464;13.590;2023-05-29T13:22:41;4.50;;;2.30;;
71626;SDS011;59475;52.464;13.590;2023-05-29T13:25:08;4.67;;;1.90;;
71626;SDS011;59475;52.464;13.590;2023-05-29T13:27:36;2.78;;;1.98;;
71626;SDS011;59475;52.464;13.590;2023-05-29T13:30:03;4.88;;;2.03;;
71626;SDS011;59475;52.464;13.590;2023-05-29T13:32:29;4.85;;;2.05;;
71626;SDS011;59475;52.464;13.590;2023-05-29T13:34:55;4.57;;;2.30;;
71626;SDS011;59475;52.464;13.590;2023-05-29T13:37:20;3.63;;;1.80;;
71626;SDS011;59475;52.464;13.590;2023-05-29T13:39:46;4.43;;;1.77;;
71626;SDS011;59475;52.464;13.590;2023-05-29T13:42:11;5.90;;;2.40;;
71626;SDS011;59475;52.464;13.590;2023-05-29T13:44:37;4.33;;;1.80;;
71626;SDS011;59475;52.464;13.590;2023-05-29T13:47:02;3.00;;;1.75;;
71626;SDS011;59475;52.464;13.590;2023-05-29T13:49:28;3.57;;;1.80;;
71626;SDS011;59475;52.464;13.590;2023-05-29T13:51:53;4.00;;;1.87;;
71626;SDS011;59475;52.464;13.590;2023-05-29T13:54:19;3.50;;;1.92;;
71626;SDS011;59475;52.464;13.590;2023-05-29T13:56:44;3.83;;;1.77;;
71626;SDS011;59475;52.464;13.590;2023-05-29T13:59:12;4.73;;;2.10;;
71626;SDS011;59475;52.464;13.590;2023-05-29T14:01:37;3.50;;;2.20;;
71626;SDS011;59475;52.464;13.590;2023-05-29T14:04:02;5.30;;;2.00;;
71626;SDS011;59475;52.464;13.590;2023-05-29T14:06:28;6.40;;;2.55;;
71626;SDS011;59475;52.464;13.590;2023-05-29T14:08:53;4.10;;;2.43;;
71626;SDS011;59475;52.464;13.590;2023-05-29T14:11:21;4.55;;;2.08;;
71626;SDS011;59475;52.464;13.590;2023-05-29T14:13:46;5.90;;;2.10;;
71626;SDS011;59475;52.464;13.590;2023-05-29T14:16:13;4.50;;;2.20;;
71626;SDS011;59475;52.464;13.590;2023-05-29T14:18:40;4.80;;;1.83;;
71626;SDS011;59475;52.464;13.590;2023-05-29T14:21:06;4.80;;;2.00;;
71626;SDS011;59475;52.464;13.590;2023-05-29T14:23:32;3.83;;;2.07;;
71626;SDS011;59475;52.464;13.590;2023-05-29T14:25:59;4.43;;;1.80;;
71626;SDS011;59475;52.464;13.590;2023-05-29T14:28:25;6.93;;;2.27;;
71626;SDS011;59475;52.464;13.590;2023-05-29T14:30:51;4.00;;;1.85;;
71626;SDS011;59475;52.464;13.590;2023-05-29T14:33:16;3.87;;;2.00;;
71626;SDS011;59475;52.464;13.590;2023-05-29T14:35:42;3.17;;;2.00;;
71626;SDS011;59475;52.464;13.590;2023-05-29T14:38:07;3.90;;;1.90;;
71626;SDS011;59475;52.464;13.590;2023-05-29T14:40:32;3.10;;;2.07;;
71626;SDS011;59475;52.464;13.590;2023-05-29T14:42:59;5.97;;;2.10;;
71626;SDS011;59475;52.464;13.590;2023-05-29T14:45:24;6.87;;;2.27;;
71626;SDS011;59475;52.464;13.590;2023-05-29T14:47:50;3.72;;;1.80;;
71626;SDS011;59475;52.464;13.590;2023-05-29T14:50:16;4.40;;;1.70;;
71626;SDS011;59475;52.464;13.590;2023-05-29T14:52:41;5.03;;;2.20;;
71626;SDS011;59475;52.464;13.590;2023-05-29T14:55:07;5.13;;;1.87;;
71626;SDS011;59475;52.464;13.590;2023-05-29T14:57:32;4.20;;;2.30;;
71626;SDS011;59475;52.464;13.590;2023-05-29T14:59:59;4.20;;;2.20;;
71626;SDS011;59475;52.464;13.590;2023-05-29T15:02:29;5.00;;;1.73;;